Worthing, South Dakota
Current Conditions -  °F | °C
As of 1:56 PM on Thursday 30 Oct 2014 (Local Time) from KFSD Reporting Station
Overcast Overcast  
Wind Chill: 51°   Ceiling: 3100
Heat Index: 51°   Visibility: 10mi
Dew Point: 42°   Wind: 18mph
Humidity: 71%   Direction: 330°NNW
Pressure: 30.14"   Gusts: NA
Location:  43.33°N, 96.76°W
Report Text: KFSD 301856Z 33016KT 10SM OVC031 11/06 A3014 RMK AO2 SLP211 T01060056
Loading
Personal Weather Stations






























Interactive Weather Map
Tropical Storm Tracking
New forecast layout! Learn more

10-Day Weather Forecast

Advertisements
Track Severe Weather on mobile